Balasov, Russia
Current Conditions -  °F | °C
As of 4:30 PM on Monday 22 Dec 2014 (Local Time) from UWSS Reporting Station
Broken Clouds Broken Clouds  
Wind Chill: 24°   Ceiling: 3300
Heat Index: 34°   Visibility: 6mi
Dew Point: 28°   Wind: 13mph
Humidity: 81%   Direction: 270°W
Pressure: 29.65"   Gusts: NA
Location:  51.55°N, 43.15°E
Report Text: UWSS 221330Z 27006MPS 9999 BKN033CB 01/M02 Q1004 3029//55 NOSIGRMK QFE739
Loading
Personal Weather Stations






























Interactive Weather Map New forecast layout! Learn more

10-Day Weather Forecast

Advertisements
Track Severe Weather on mobile